Hauptseite
METAR-TAF:

METAR-TAF

Flughäfen :

Belize City, Belize

Philip S. W. Goldson International Airport

Breite: 17-32N, Länge: 088-18W, Höhe: 5 m

Beobachtung

Neuester Wetterbericht von vor 6 Stunden und 16 Minuten, um 00:00 UTC
Wind 6 kt aus Ost
Temperatur 26°C
Luftfeuchtigkeit 79%
Luftdruck 1016 hPa
Sichtweite 10 km oder mehr
Leicht bewölkt in der Höhe von 2400 ft

METAR: MZBZ 230000Z 10006KT 9999 FEW024 26/22 A3002 Q1016 NOSIG

Zeit: 00:16 (06:16 UTC)

Prognose

Neuester Wetterbericht von vor 3 Stunden und 16 Minuten, um 03:00 UTC
Gültige Prognose vom 23 um 06 UTC bis 24 um 06 UTC
Wind 5 kt aus Nord/Nordwest
Sichtweite 10 km oder mehr
Aufgelockert bewölkt in der Höhe von 2200 ft
Übergehend zu
vom 23 um 15 UTC bis 23 um 17 UTC
Wind 7 kt aus Ost/Nordost

TAF: MZBZ 230300Z 2306/2406 34005KT 9999 SCT022 BECMG 2315/2317 07007KT

Wetterbeobachtungen und Prognosen von mehr als 4000 Flughäfen (METAR und TAF Bericht).

Die verfügbaren Stationen werden durch gelbe und rote Markierungen auf der Karte dargestellt.

Führen Sie die Maus auf sie, um den Namen der Station zu sehen.

Darauf klicken, um die Beobachtung von Wetterbeobachtungen und Prognosen zu sehen.

Um die Karte zu ändern : klicken Sie auf den grünen Tasten mit einem schwarzen Kreuz Zum Vergrößern, auf den grünen Button mit einem Gedankenstrich zu verkleinern, oder auf die grünen Pfeile für benachbarte Karten.


METAR-TAF: